Time;durP1;ratioP1;P1;durP2;ratioP2;P2;SDS_P1;SDS_P2;PMS_P1;PMS_P2;Temp;Humidity;BMP_temperature;BMP_pressure;BME280_temperature;BME280_humidity;BME280_pressure;Samples;Min_cycle;Max_cycle;Signal;HPM_P1;HPM_P2
2021/12/09 00:01:37;;;;;;;43.05;18.88;;;;;;;;;;4976604;28;19925;-61
2021/12/09 00:04:06;;;;;;;44.38;21.58;;;;;;;;;;4975932;28;20109;-61
2021/12/09 00:06:34;;;;;;;47.80;18.05;;;;;;;;;;4975663;28;20109;-61
2021/12/09 00:09:08;;;;;;;53.10;20.77;;;;;;;;;;4976514;28;20059;-60
2021/12/09 00:11:42;;;;;;;73.47;30.55;;;;;;;;;;4959118;28;20364;-60
2021/12/09 00:14:09;;;;;;;83.60;34.50;;;;;;;;;;4975949;28;20081;-61
2021/12/09 00:16:36;;;;;;;82.22;33.78;;;;;;;;;;4976295;28;20030;-61
2021/12/09 00:19:02;;;;;;;119.85;47.35;;;;;;;;;;4976292;28;20043;-59
2021/12/09 00:21:28;;;;;;;111.10;46.63;;;;;;;;;;4976087;28;20031;-60
2021/12/09 00:23:54;;;;;;;111.50;44.22;;;;;;;;;;4976406;28;20063;-59
2021/12/09 00:26:20;;;;;;;95.47;44.13;;;;;;;;;;4976243;28;20061;-60
2021/12/09 00:28:46;;;;;;;100.05;40.97;;;;;;;;;;4975634;28;20023;-59
2021/12/09 00:31:14;;;;;;;117.30;45.22;;;;;;;;;;4975809;28;20055;-60
2021/12/09 00:33:44;;;;;;;92.72;40.78;;;;;;;;;;4975712;28;20432;-60
2021/12/09 00:36:11;;;;;;;92.60;40.42;;;;;;;;;;4976053;28;20479;-60
2021/12/09 00:38:40;;;;;;;101.40;42.60;;;;;;;;;;4975788;28;20034;-58
2021/12/09 00:41:08;;;;;;;113.47;44.65;;;;;;;;;;4976007;28;20031;-60
2021/12/09 00:43:34;;;;;;;84.45;35.50;;;;;;;;;;4975920;28;20019;-60
2021/12/09 00:46:00;;;;;;;85.07;33.60;;;;;;;;;;4975411;28;20022;-58
2021/12/09 00:48:27;;;;;;;61.08;29.70;;;;;;;;;;4975148;28;20034;-60
2021/12/09 00:50:54;;;;;;;85.82;35.00;;;;;;;;;;4975633;28;20372;-59
2021/12/09 00:53:20;;;;;;;92.45;36.28;;;;;;;;;;4975614;28;20031;-59
2021/12/09 00:55:47;;;;;;;96.60;38.83;;;;;;;;;;4975559;28;20054;-59
2021/12/09 00:58:13;;;;;;;84.07;38.30;;;;;;;;;;4984385;28;20491;-59
2021/12/09 01:00:39;;;;;;;86.75;37.90;;;;;;;;;;4991549;28;20169;-61
2021/12/09 01:03:05;;;;;;;88.63;38.60;;;;;;;;;;4975353;28;20025;-60
2021/12/09 01:05:32;;;;;;;78.85;35.38;;;;;;;;;;4975179;28;20046;-60
2021/12/09 01:07:58;;;;;;;116.50;46.40;;;;;;;;;;4975234;28;20037;-60
2021/12/09 01:10:25;;;;;;;115.18;47.30;;;;;;;;;;4974755;28;20531;-60
2021/12/09 01:12:52;;;;;;;88.05;38.22;;;;;;;;;;4975522;28;20030;-57
2021/12/09 01:15:18;;;;;;;74.30;33.72;;;;;;;;;;4975337;28;20030;-56
2021/12/09 01:17:46;;;;;;;82.10;35.53;;;;;;;;;;4975148;28;20039;-59
2021/12/09 01:20:13;;;;;;;99.07;41.13;;;;;;;;;;4974966;28;20049;-59
2021/12/09 01:22:42;;;;;;;95.40;39.88;;;;;;;;;;4974931;28;20475;-61
2021/12/09 01:25:10;;;;;;;87.93;38.35;;;;;;;;;;4974870;28;20082;-58
2021/12/09 01:27:39;;;;;;;87.10;37.17;;;;;;;;;;4986083;28;20030;-59
2021/12/09 01:30:12;;;;;;;81.68;34.50;;;;;;;;;;4993936;28;20019;-60
2021/12/09 01:32:42;;;;;;;82.63;35.35;;;;;;;;;;4994884;28;20025;-60
2021/12/09 01:35:09;;;;;;;97.13;41.70;;;;;;;;;;4994556;28;20019;-60
2021/12/09 01:37:37;;;;;;;81.88;34.20;;;;;;;;;;4993798;28;20029;-61
2021/12/09 01:40:04;;;;;;;81.65;35.53;;;;;;;;;;4994066;28;20521;-59
2021/12/09 01:42:30;;;;;;;85.65;35.40;;;;;;;;;;4993937;28;20027;-59
2021/12/09 01:44:56;;;;;;;83.30;33.53;;;;;;;;;;4994110;28;20072;-59
2021/12/09 01:47:23;;;;;;;74.28;30.42;;;;;;;;;;4994539;28;20030;-59
2021/12/09 01:49:49;;;;;;;73.97;30.67;;;;;;;;;;4994292;28;20019;-60
2021/12/09 01:52:15;;;;;;;65.97;28.13;;;;;;;;;;4994236;28;20022;-58
2021/12/09 01:54:41;;;;;;;38.10;16.23;;;;;;;;;;4994183;28;20023;-59
2021/12/09 01:57:07;;;;;;;34.58;15.73;;;;;;;;;;4994001;28;20022;-60
2021/12/09 01:59:34;;;;;;;37.38;16.58;;;;;;;;;;4993636;28;20034;-59
2021/12/09 02:02:00;;;;;;;31.83;14.95;;;;;;;;;;4994498;28;20062;-61
2021/12/09 02:04:27;;;;;;;39.03;16.35;;;;;;;;;;4994175;28;20164;-59
2021/12/09 02:06:53;;;;;;;30.20;13.50;;;;;;;;;;4994021;28;20027;-60
2021/12/09 02:09:20;;;;;;;27.00;12.85;;;;;;;;;;4994037;28;20027;-60
2021/12/09 02:11:46;;;;;;;27.85;12.45;;;;;;;;;;4994086;28;20031;-60
2021/12/09 02:14:13;;;;;;;25.52;12.13;;;;;;;;;;4997564;28;20073;-58
2021/12/09 02:16:39;;;;;;;28.35;12.07;;;;;;;;;;4997959;28;20096;-59
2021/12/09 02:19:07;;;;;;;27.88;12.30;;;;;;;;;;4997801;28;20053;-60
2021/12/09 02:21:34;;;;;;;22.80;10.55;;;;;;;;;;4998003;28;20014;-58
2021/12/09 02:24:02;;;;;;;23.27;11.07;;;;;;;;;;4997811;28;20026;-59
2021/12/09 02:26:30;;;;;;;25.88;11.18;;;;;;;;;;4997284;28;20027;-59
2021/12/09 02:28:57;;;;;;;20.20;10.98;;;;;;;;;;4998167;28;20053;-60
2021/12/09 02:31:24;;;;;;;28.40;10.98;;;;;;;;;;4997472;28;20030;-59
2021/12/09 02:33:50;;;;;;;21.70;10.15;;;;;;;;;;4980140;28;20472;-60
2021/12/09 02:36:17;;;;;;;19.38;9.27;;;;;;;;;;4997679;28;20061;-60
2021/12/09 02:38:44;;;;;;;19.90;8.93;;;;;;;;;;4997358;28;20040;-60
2021/12/09 02:41:17;;;;;;;18.27;8.10;;;;;;;;;;4996833;28;20521;-60
2021/12/09 02:43:44;;;;;;;15.95;8.63;;;;;;;;;;4997156;28;20097;-60
2021/12/09 02:46:10;;;;;;;20.55;8.68;;;;;;;;;;4997291;28;20050;-59
2021/12/09 02:48:37;;;;;;;12.63;6.63;;;;;;;;;;4997516;28;20027;-59
2021/12/09 02:51:04;;;;;;;14.77;6.75;;;;;;;;;;4997436;28;20022;-60
2021/12/09 02:53:31;;;;;;;14.35;6.78;;;;;;;;;;4997424;28;20085;-58
2021/12/09 02:55:57;;;;;;;15.88;7.60;;;;;;;;;;4996890;28;20037;-59
2021/12/09 02:58:23;;;;;;;12.38;5.63;;;;;;;;;;4997281;28;20046;-59
2021/12/09 03:00:51;;;;;;;14.27;6.45;;;;;;;;;;4996782;28;20030;-58
2021/12/09 03:03:17;;;;;;;15.55;7.57;;;;;;;;;;4997327;28;20084;-58
2021/12/09 03:05:45;;;;;;;16.25;7.72;;;;;;;;;;4997117;28;20031;-60
2021/12/09 03:08:12;;;;;;;16.55;8.02;;;;;;;;;;4996584;28;20447;-60
2021/12/09 03:10:38;;;;;;;17.23;9.55;;;;;;;;;;4996857;28;20382;-59
2021/12/09 03:13:09;;;;;;;19.15;8.90;;;;;;;;;;4996620;28;20070;-59
2021/12/09 03:15:36;;;;;;;18.42;8.23;;;;;;;;;;4996934;28;20019;-59
2021/12/09 03:18:02;;;;;;;17.83;7.43;;;;;;;;;;4996928;28;20037;-61
2021/12/09 03:20:28;;;;;;;17.67;7.55;;;;;;;;;;4996518;28;20026;-58
2021/12/09 03:22:54;;;;;;;14.82;7.43;;;;;;;;;;4996659;28;20026;-59
2021/12/09 03:25:21;;;;;;;13.40;6.65;;;;;;;;;;4995464;28;20034;-60
2021/12/09 03:27:50;;;;;;;13.95;6.40;;;;;;;;;;4996514;28;20030;-59
2021/12/09 03:30:18;;;;;;;14.20;6.57;;;;;;;;;;4996342;28;20038;-59
2021/12/09 03:32:44;;;;;;;14.95;6.15;;;;;;;;;;4996318;28;20103;-59
2021/12/09 03:35:11;;;;;;;15.05;6.38;;;;;;;;;;4996965;28;20076;-59
2021/12/09 03:37:38;;;;;;;17.85;6.15;;;;;;;;;;4996076;28;20102;-59
2021/12/09 03:40:06;;;;;;;15.20;6.43;;;;;;;;;;4996265;28;20018;-60
2021/12/09 03:42:32;;;;;;;13.55;6.88;;;;;;;;;;4997103;28;20479;-60
2021/12/09 03:44:58;;;;;;;16.10;6.88;;;;;;;;;;4996208;28;20027;-58
2021/12/09 03:47:26;;;;;;;13.02;6.35;;;;;;;;;;4996332;28;20023;-59
2021/12/09 03:49:52;;;;;;;13.55;6.45;;;;;;;;;;4996188;28;20022;-61
2021/12/09 03:52:18;;;;;;;15.43;7.65;;;;;;;;;;4996375;28;20054;-60
2021/12/09 03:54:45;;;;;;;15.80;7.82;;;;;;;;;;4996223;28;20028;-59
2021/12/09 03:57:12;;;;;;;14.20;6.60;;;;;;;;;;4996087;28;20113;-58
2021/12/09 03:59:40;;;;;;;10.23;5.22;;;;;;;;;;4996042;28;20034;-59
2021/12/09 04:02:07;;;;;;;16.95;6.38;;;;;;;;;;4996103;28;20050;-58
2021/12/09 04:04:33;;;;;;;12.60;5.93;;;;;;;;;;4995668;28;20356;-59
2021/12/09 04:06:59;;;;;;;11.90;5.72;;;;;;;;;;4996134;28;20363;-59
2021/12/09 04:09:25;;;;;;;12.48;6.40;;;;;;;;;;4995945;28;20162;-59
2021/12/09 04:11:53;;;;;;;13.20;6.20;;;;;;;;;;4995691;28;20026;-60
2021/12/09 04:14:20;;;;;;;12.88;5.75;;;;;;;;;;4995484;28;20023;-61
2021/12/09 04:16:46;;;;;;;15.02;6.70;;;;;;;;;;4995719;28;20050;-60
2021/12/09 04:19:12;;;;;;;17.98;6.93;;;;;;;;;;4995500;28;20039;-61
2021/12/09 04:21:39;;;;;;;12.02;6.53;;;;;;;;;;4995590;28;20063;-61
2021/12/09 04:24:07;;;;;;;13.05;6.28;;;;;;;;;;4995782;28;20029;-60
2021/12/09 04:26:38;;;;;;;18.20;7.38;;;;;;;;;;4994955;28;20488;-60
2021/12/09 04:29:05;;;;;;;12.90;5.70;;;;;;;;;;4995569;28;20353;-60
2021/12/09 04:31:31;;;;;;;14.50;6.05;;;;;;;;;;4995197;28;20334;-60
2021/12/09 04:33:57;;;;;;;18.42;7.13;;;;;;;;;;4995302;28;20034;-60
2021/12/09 04:36:25;;;;;;;12.90;5.72;;;;;;;;;;4994752;28;20026;-59
2021/12/09 04:38:52;;;;;;;14.52;6.10;;;;;;;;;;4994903;28;20034;-60
2021/12/09 04:41:19;;;;;;;17.42;6.00;;;;;;;;;;4995776;28;20376;-60
2021/12/09 04:43:45;;;;;;;14.77;6.28;;;;;;;;;;4994886;28;20025;-60
2021/12/09 04:46:12;;;;;;;15.93;6.88;;;;;;;;;;4994865;28;20077;-60
2021/12/09 04:48:38;;;;;;;16.70;6.38;;;;;;;;;;4994885;28;20484;-59
2021/12/09 04:51:05;;;;;;;16.80;6.90;;;;;;;;;;4994830;28;20033;-60
2021/12/09 04:53:31;;;;;;;21.10;7.25;;;;;;;;;;4994658;28;20019;-59
2021/12/09 04:55:58;;;;;;;15.70;7.35;;;;;;;;;;4995166;28;20471;-55
2021/12/09 04:58:24;;;;;;;17.30;6.75;;;;;;;;;;4994593;28;20544;-58
2021/12/09 05:00:51;;;;;;;11.30;5.20;;;;;;;;;;4993793;28;20019;-58
2021/12/09 05:03:18;;;;;;;16.48;5.88;;;;;;;;;;4994569;28;20030;-58
2021/12/09 05:05:46;;;;;;;15.75;6.75;;;;;;;;;;4994931;28;20057;-60
2021/12/09 05:08:13;;;;;;;19.38;6.78;;;;;;;;;;4994395;28;20026;-60
2021/12/09 05:13:20;;;;;;;17.83;7.78;;;;;;;;;;4994869;28;20080;-60
2021/12/09 05:15:46;;;;;;;15.35;6.70;;;;;;;;;;4994219;28;20023;-60
2021/12/09 05:18:13;;;;;;;18.55;7.45;;;;;;;;;;4994704;28;20030;-60
2021/12/09 05:20:40;;;;;;;24.73;10.95;;;;;;;;;;4994090;28;20030;-60
2021/12/09 05:23:06;;;;;;;23.05;9.20;;;;;;;;;;4994009;28;20014;-59
2021/12/09 05:25:32;;;;;;;10.75;5.53;;;;;;;;;;4994169;28;20044;-60
2021/12/09 05:27:59;;;;;;;13.98;6.50;;;;;;;;;;4994240;28;20722;-59
2021/12/09 05:30:37;;;;;;;17.50;6.97;;;;;;;;;;4994302;28;20026;-59
2021/12/09 05:33:04;;;;;;;9.13;4.78;;;;;;;;;;4992253;28;20049;-60
2021/12/09 05:35:30;;;;;;;13.95;5.95;;;;;;;;;;4992702;28;20022;-58
2021/12/09 05:37:56;;;;;;;12.70;5.85;;;;;;;;;;4994075;28;20039;-59
2021/12/09 05:40:22;;;;;;;17.40;8.88;;;;;;;;;;4994363;28;20024;-58
2021/12/09 05:42:48;;;;;;;17.40;8.07;;;;;;;;;;4993802;28;20031;-60
2021/12/09 05:45:14;;;;;;;18.50;8.10;;;;;;;;;;4993885;28;20538;-56
2021/12/09 05:47:41;;;;;;;17.27;8.38;;;;;;;;;;4993566;28;20015;-59
2021/12/09 05:50:08;;;;;;;11.80;5.80;;;;;;;;;;4994023;28;20040;-59
2021/12/09 05:52:34;;;;;;;13.65;6.93;;;;;;;;;;4994145;28;20030;-58
2021/12/09 05:55:00;;;;;;;16.33;6.35;;;;;;;;;;4993802;28;20375;-60
2021/12/09 05:57:27;;;;;;;15.88;8.07;;;;;;;;;;4994005;28;20112;-59
2021/12/09 05:59:54;;;;;;;13.27;6.50;;;;;;;;;;4983891;28;20089;-60
2021/12/09 06:02:21;;;;;;;14.43;6.50;;;;;;;;;;4991967;28;20058;-59
2021/12/09 06:04:47;;;;;;;12.95;6.28;;;;;;;;;;4993994;28;20041;-58
2021/12/09 06:07:14;;;;;;;10.00;5.10;;;;;;;;;;4985216;28;20043;-61
2021/12/09 06:09:40;;;;;;;10.88;5.70;;;;;;;;;;4983058;28;20551;-59
2021/12/09 06:12:07;;;;;;;13.77;6.43;;;;;;;;;;4993451;28;20027;-57
2021/12/09 06:14:33;;;;;;;12.77;6.15;;;;;;;;;;4993804;28;20029;-58
2021/12/09 06:16:59;;;;;;;62.15;19.17;;;;;;;;;;4992740;28;20565;-59
2021/12/09 06:19:25;;;;;;;13.85;5.85;;;;;;;;;;4992491;28;20484;-70
2021/12/09 06:21:53;;;;;;;11.10;6.28;;;;;;;;;;4992439;28;20479;-70
2021/12/09 06:24:21;;;;;;;13.73;7.30;;;;;;;;;;4993728;28;20026;-58
2021/12/09 06:26:47;;;;;;;16.88;7.88;;;;;;;;;;4994288;28;20027;-55
2021/12/09 06:29:13;;;;;;;16.58;7.10;;;;;;;;;;4993906;28;20026;-60
2021/12/09 06:31:39;;;;;;;13.38;5.45;;;;;;;;;;4993722;28;20019;-62
2021/12/09 06:34:05;;;;;;;21.83;8.20;;;;;;;;;;4994151;28;20031;-60
2021/12/09 06:36:31;;;;;;;18.45;8.20;;;;;;;;;;4993873;28;20019;-60
2021/12/09 06:38:58;;;;;;;23.65;8.80;;;;;;;;;;4993596;28;20045;-60
2021/12/09 06:41:24;;;;;;;63.25;20.10;;;;;;;;;;4993307;28;20037;-60
2021/12/09 06:43:50;;;;;;;30.65;12.18;;;;;;;;;;4993879;28;20026;-60
2021/12/09 06:46:16;;;;;;;23.13;10.40;;;;;;;;;;4992567;28;20486;-60
2021/12/09 06:48:43;;;;;;;45.75;17.40;;;;;;;;;;4993922;28;20038;-60
2021/12/09 06:51:09;;;;;;;157.52;50.22;;;;;;;;;;4993717;28;20444;-60
2021/12/09 06:53:36;;;;;;;18.10;7.82;;;;;;;;;;4993307;28;20486;-60
2021/12/09 06:56:03;;;;;;;14.02;6.93;;;;;;;;;;4993091;28;20109;-60
2021/12/09 06:58:30;;;;;;;20.23;8.45;;;;;;;;;;4993353;28;20037;-60
2021/12/09 07:00:56;;;;;;;32.65;12.45;;;;;;;;;;4996210;28;20023;-59
2021/12/09 07:03:23;;;;;;;15.23;5.03;;;;;;;;;;4996219;28;20026;-61
2021/12/09 07:05:50;;;;;;;15.02;6.95;;;;;;;;;;4996818;28;20360;-61
2021/12/09 07:08:17;;;;;;;33.90;11.95;;;;;;;;;;4997188;28;20040;-60
2021/12/09 07:10:44;;;;;;;23.15;8.93;;;;;;;;;;4996763;28;20498;-59
2021/12/09 07:13:10;;;;;;;34.95;14.43;;;;;;;;;;4996873;28;20031;-61
2021/12/09 07:15:36;;;;;;;23.05;9.68;;;;;;;;;;4996815;28;20046;-60
2021/12/09 07:18:02;;;;;;;12.82;6.82;;;;;;;;;;4996860;28;20084;-60
2021/12/09 07:20:29;;;;;;;14.13;7.03;;;;;;;;;;4996716;28;20467;-59
2021/12/09 07:22:55;;;;;;;41.00;16.20;;;;;;;;;;4997221;28;20072;-60
2021/12/09 07:25:23;;;;;;;16.85;7.82;;;;;;;;;;4996812;28;20149;-60
2021/12/09 07:27:49;;;;;;;19.52;8.43;;;;;;;;;;4996629;28;20022;-60
2021/12/09 07:30:16;;;;;;;26.13;10.43;;;;;;;;;;4996727;28;20018;-60
2021/12/09 07:32:43;;;;;;;31.08;13.55;;;;;;;;;;4996451;28;20109;-60
2021/12/09 07:35:10;;;;;;;20.80;9.30;;;;;;;;;;4996467;28;20138;-61
2021/12/09 07:37:37;;;;;;;14.93;7.10;;;;;;;;;;4996737;28;20444;-61
2021/12/09 07:40:05;;;;;;;17.05;6.40;;;;;;;;;;4996771;28;20037;-60
2021/12/09 07:42:31;;;;;;;13.90;6.30;;;;;;;;;;4996328;28;20038;-61
2021/12/09 07:44:57;;;;;;;15.82;7.20;;;;;;;;;;4996408;28;20029;-60
2021/12/09 07:47:23;;;;;;;21.13;7.97;;;;;;;;;;4996223;28;20027;-60
2021/12/09 07:49:49;;;;;;;15.80;7.00;;;;;;;;;;4978799;28;20042;-60
2021/12/09 07:52:16;;;;;;;17.05;7.40;;;;;;;;;;4996087;28;20427;-60
2021/12/09 07:54:42;;;;;;;11.52;4.97;;;;;;;;;;4996670;28;20088;-61
2021/12/09 07:57:08;;;;;;;9.85;4.85;;;;;;;;;;4996340;28;20030;-60
2021/12/09 07:59:35;;;;;;;15.27;7.57;;;;;;;;;;4996007;28;20472;-60
2021/12/09 08:02:01;;;;;;;19.15;7.07;;;;;;;;;;4996255;28;20046;-61
2021/12/09 08:04:28;;;;;;;15.20;7.40;;;;;;;;;;4996148;28;20379;-60
2021/12/09 08:06:54;;;;;;;12.52;6.45;;;;;;;;;;4996042;28;20530;-60
2021/12/09 08:09:20;;;;;;;18.48;8.48;;;;;;;;;;4995952;28;20121;-60
2021/12/09 08:11:47;;;;;;;21.65;8.90;;;;;;;;;;4995091;28;20375;-60
2021/12/09 08:14:16;;;;;;;14.68;7.35;;;;;;;;;;4995876;28;20069;-60
2021/12/09 08:16:42;;;;;;;16.30;8.00;;;;;;;;;;4995649;28;20026;-60
2021/12/09 08:19:09;;;;;;;22.73;10.10;;;;;;;;;;4995515;28;20085;-60
2021/12/09 08:21:37;;;;;;;29.65;11.45;;;;;;;;;;4996086;28;20030;-60
2021/12/09 08:24:04;;;;;;;25.10;10.65;;;;;;;;;;4995315;28;20033;-60
2021/12/09 08:26:30;;;;;;;23.52;10.00;;;;;;;;;;4995923;28;20050;-60
2021/12/09 08:28:56;;;;;;;12.55;6.75;;;;;;;;;;4995932;28;20041;-60
2021/12/09 08:31:23;;;;;;;18.15;8.88;;;;;;;;;;4995561;28;20029;-60
2021/12/09 08:33:49;;;;;;;14.70;7.03;;;;;;;;;;4995631;28;20022;-58
2021/12/09 08:36:15;;;;;;;14.48;6.40;;;;;;;;;;4995519;28;20022;-60
2021/12/09 08:38:41;;;;;;;13.85;6.25;;;;;;;;;;4995142;28;20040;-60
2021/12/09 08:41:08;;;;;;;15.05;5.78;;;;;;;;;;4995330;28;20022;-60
2021/12/09 08:43:36;;;;;;;12.02;6.20;;;;;;;;;;4995682;28;20106;-60
2021/12/09 08:46:02;;;;;;;10.95;5.93;;;;;;;;;;4995288;28;20073;-60
2021/12/09 08:48:29;;;;;;;8.90;5.25;;;;;;;;;;4994923;28;20036;-59
2021/12/09 08:50:55;;;;;;;13.75;6.80;;;;;;;;;;4994791;28;20022;-61
2021/12/09 08:53:23;;;;;;;9.93;5.15;;;;;;;;;;4995421;28;20129;-59
2021/12/09 08:55:49;;;;;;;13.27;5.57;;;;;;;;;;4995020;28;20112;-59
2021/12/09 08:58:16;;;;;;;11.27;4.90;;;;;;;;;;4994771;28;20072;-59
2021/12/09 09:00:42;;;;;;;9.32;5.18;;;;;;;;;;4994797;28;20026;-60
2021/12/09 09:03:09;;;;;;;8.43;4.30;;;;;;;;;;4994670;28;20097;-60
2021/12/09 09:05:37;;;;;;;8.75;4.85;;;;;;;;;;4994946;28;20038;-60
2021/12/09 09:08:04;;;;;;;8.75;4.47;;;;;;;;;;4994922;28;20029;-60
2021/12/09 09:10:31;;;;;;;10.20;5.68;;;;;;;;;;4994746;28;20034;-61
2021/12/09 09:12:58;;;;;;;12.65;6.80;;;;;;;;;;4994375;28;20530;-60
2021/12/09 09:15:24;;;;;;;12.85;6.00;;;;;;;;;;4995039;28;20097;-59
2021/12/09 09:17:51;;;;;;;14.50;7.93;;;;;;;;;;4994301;28;20022;-61
2021/12/09 09:20:18;;;;;;;15.35;7.68;;;;;;;;;;4994553;28;20092;-60
2021/12/09 09:22:44;;;;;;;17.42;8.52;;;;;;;;;;4993720;28;20034;-60
2021/12/09 09:25:22;;;;;;;14.80;7.53;;;;;;;;;;4994520;28;20079;-60
2021/12/09 09:27:49;;;;;;;17.77;10.27;;;;;;;;;;4994178;28;20050;-61
2021/12/09 09:30:17;;;;;;;23.20;9.88;;;;;;;;;;4994546;28;20023;-60
2021/12/09 09:32:44;;;;;;;20.23;10.25;;;;;;;;;;4994040;28;20014;-59
2021/12/09 09:35:11;;;;;;;24.13;11.65;;;;;;;;;;4994760;28;20026;-60
2021/12/09 09:37:37;;;;;;;20.40;11.43;;;;;;;;;;4994187;28;20023;-60
2021/12/09 09:40:07;;;;;;;19.83;10.98;;;;;;;;;;4994176;28;20088;-59
2021/12/09 09:42:55;;;;;;;18.25;8.93;;;;;;;;;;4994403;28;20030;-59
2021/12/09 09:45:20;;;;;;;17.20;9.20;;;;;;;;;;4993811;28;20115;-58
2021/12/09 09:47:46;;;;;;;15.00;8.30;;;;;;;;;;4994074;28;20018;-59
2021/12/09 09:50:13;;;;;;;18.83;10.77;;;;;;;;;;4993830;28;20027;-59
2021/12/09 09:52:40;;;;;;;17.30;8.95;;;;;;;;;;4994466;28;20175;-60
2021/12/09 09:55:08;;;;;;;15.00;7.78;;;;;;;;;;4994155;28;20375;-59
2021/12/09 09:57:35;;;;;;;12.50;6.50;;;;;;;;;;4994537;28;20379;-61
2021/12/09 10:00:01;;;;;;;12.15;6.60;;;;;;;;;;4993785;28;20030;-61
2021/12/09 10:02:27;;;;;;;14.40;8.75;;;;;;;;;;4993425;28;20050;-60
2021/12/09 10:05:01;;;;;;;8.07;5.00;;;;;;;;;;4994350;28;20056;-59
2021/12/09 10:07:28;;;;;;;9.30;4.90;;;;;;;;;;4993872;28;20107;-62
2021/12/09 10:09:54;;;;;;;9.38;5.70;;;;;;;;;;4993591;28;20110;-60
2021/12/09 10:12:21;;;;;;;12.35;3.97;;;;;;;;;;4994145;28;20076;-61
2021/12/09 10:14:51;;;;;;;7.90;4.45;;;;;;;;;;4993823;28;20030;-61
2021/12/09 10:17:22;;;;;;;7.90;4.53;;;;;;;;;;4994291;28;20080;-63
2021/12/09 10:19:56;;;;;;;8.15;4.80;;;;;;;;;;4993520;28;20093;-62
2021/12/09 10:22:24;;;;;;;10.18;5.10;;;;;;;;;;4993882;28;20029;-61
2021/12/09 10:24:53;;;;;;;9.93;5.38;;;;;;;;;;4993563;28;20467;-61
2021/12/09 10:27:31;;;;;;;9.25;5.00;;;;;;;;;;4993687;28;20046;-60
2021/12/09 10:30:14;;;;;;;9.35;4.15;;;;;;;;;;4993395;28;20027;-61
2021/12/09 10:32:42;;;;;;;6.95;4.25;;;;;;;;;;4993383;28;20026;-61
2021/12/09 10:35:12;;;;;;;11.35;5.93;;;;;;;;;;4996861;28;20506;-62
2021/12/09 10:37:40;;;;;;;8.07;4.75;;;;;;;;;;4997073;28;20395;-59
2021/12/09 10:40:06;;;;;;;5.13;3.83;;;;;;;;;;4997111;28;20027;-60
2021/12/09 10:42:37;;;;;;;9.15;4.00;;;;;;;;;;4997402;28;20379;-60
2021/12/09 10:45:11;;;;;;;15.57;6.65;;;;;;;;;;4997238;28;20468;-60
2021/12/09 10:47:55;;;;;;;15.77;7.53;;;;;;;;;;4997096;28;20030;-60
2021/12/09 10:50:32;;;;;;;10.85;5.47;;;;;;;;;;4997038;28;20026;-61
2021/12/09 10:53:05;;;;;;;10.70;5.57;;;;;;;;;;4997831;28;20022;-59
2021/12/09 10:55:34;;;;;;;9.95;5.07;;;;;;;;;;4997261;28;20029;-61
2021/12/09 10:58:02;;;;;;;11.05;5.88;;;;;;;;;;4996607;28;20026;-62
2021/12/09 11:00:34;;;;;;;6.60;4.43;;;;;;;;;;4997181;28;20030;-64
2021/12/09 11:03:03;;;;;;;11.35;5.35;;;;;;;;;;4997012;28;20145;-63
2021/12/09 11:05:30;;;;;;;12.10;5.70;;;;;;;;;;4997010;28;20025;-64
2021/12/09 11:08:12;;;;;;;6.90;4.40;;;;;;;;;;4997306;28;20602;-64
2021/12/09 11:10:46;;;;;;;10.60;5.18;;;;;;;;;;4996617;28;20602;-62
2021/12/09 11:13:12;;;;;;;7.13;4.40;;;;;;;;;;4996801;28;20022;-63
2021/12/09 11:15:46;;;;;;;16.48;7.72;;;;;;;;;;4996935;28;20022;-61
2021/12/09 11:18:29;;;;;;;10.00;5.15;;;;;;;;;;4996625;28;20382;-62
2021/12/09 11:20:55;;;;;;;8.85;5.38;;;;;;;;;;4996907;28;20030;-62
2021/12/09 11:23:26;;;;;;;9.32;5.25;;;;;;;;;;4996110;28;20410;-62
2021/12/09 11:25:53;;;;;;;8.50;4.60;;;;;;;;;;4996932;28;20033;-64
2021/12/09 11:28:19;;;;;;;8.50;4.50;;;;;;;;;;4996604;28;20303;-67
2021/12/09 11:31:04;;;;;;;8.77;4.72;;;;;;;;;;4996846;28;20026;-63
2021/12/09 11:33:40;;;;;;;8.57;5.43;;;;;;;;;;4996270;28;20022;-63
2021/12/09 11:36:07;;;;;;;8.35;4.72;;;;;;;;;;4996548;28;20030;-63
2021/12/09 11:38:54;;;;;;;6.63;4.93;;;;;;;;;;4996865;28;20035;-62
2021/12/09 11:41:32;;;;;;;12.65;7.55;;;;;;;;;;4997337;28;20030;-62
2021/12/09 11:43:59;;;;;;;16.58;8.75;;;;;;;;;;4978859;28;20054;-65
2021/12/09 11:46:25;;;;;;;30.23;12.30;;;;;;;;;;4995134;28;20066;-65
2021/12/09 11:48:51;;;;;;;16.52;9.65;;;;;;;;;;4996378;28;20101;-64
2021/12/09 11:51:17;;;;;;;9.63;6.35;;;;;;;;;;4996294;28;20018;-65
2021/12/09 11:53:45;;;;;;;11.32;7.10;;;;;;;;;;4996153;28;20022;-63
2021/12/09 12:07:33;;;;;;;10.23;5.55;;;;;;;;;;4995985;28;20447;-63
2021/12/09 12:18:18;;;;;;;8.27;5.05;;;;;;;;;;4995709;28;20030;-67
2021/12/09 12:20:55;;;;;;;14.20;6.88;;;;;;;;;;4995950;28;20114;-65
2021/12/09 12:23:44;;;;;;;9.90;6.30;;;;;;;;;;4995497;28;20022;-64
2021/12/09 12:26:46;;;;;;;11.45;5.57;;;;;;;;;;4995767;28;20109;-62
2021/12/09 12:37:53;;;;;;;6.65;4.07;;;;;;;;;;4965181;28;20031;-63
2021/12/09 12:40:43;;;;;;;13.02;6.80;;;;;;;;;;4995058;28;20491;-65
2021/12/09 12:43:13;;;;;;;17.23;9.10;;;;;;;;;;4980829;28;20080;-61
2021/12/09 12:53:48;;;;;;;12.70;7.90;;;;;;;;;;4995132;28;20027;-62
2021/12/09 12:56:20;;;;;;;14.77;8.75;;;;;;;;;;4994986;28;20102;-64
2021/12/09 12:58:46;;;;;;;;;;;;;;;;;;4994808;28;20027;-64
2021/12/09 13:01:16;;;;;;;12.32;7.95;;;;;;;;;;4994337;28;20354;-63
2021/12/09 13:03:48;;;;;;;18.17;9.13;;;;;;;;;;4994662;28;20025;-64
2021/12/09 13:06:37;;;;;;;17.90;10.13;;;;;;;;;;4995507;28;20025;-63
2021/12/09 13:09:22;;;;;;;12.82;7.50;;;;;;;;;;4995086;28;20435;-64
2021/12/09 13:11:54;;;;;;;13.25;6.43;;;;;;;;;;4994770;28;20026;-63
2021/12/09 13:14:27;;;;;;;8.93;5.32;;;;;;;;;;4994925;28;20026;-64
2021/12/09 13:17:03;;;;;;;7.60;4.57;;;;;;;;;;4994670;28;20022;-65
2021/12/09 13:19:49;;;;;;;156.07;62.90;;;;;;;;;;4994781;28;20097;-62
2021/12/09 13:22:19;;;;;;;9.65;5.60;;;;;;;;;;4994405;28;20026;-62
2021/12/09 13:25:01;;;;;;;8.35;4.82;;;;;;;;;;4976529;28;20113;-61
2021/12/09 13:31:10;;;;;;;9.88;5.70;;;;;;;;;;4994566;28;20173;-62
2021/12/09 13:33:34;;;;;;;64.68;22.73;;;;;;;;;;4983706;28;20133;-64
2021/12/09 13:39:15;;;;;;;8.00;4.85;;;;;;;;;;4993820;28;20092;-64
2021/12/09 13:49:56;;;;;;;18.38;9.80;;;;;;;;;;4994223;28;20040;-64
2021/12/09 13:55:10;;;;;;;28.83;12.05;;;;;;;;;;4995157;28;20105;-65
2021/12/09 13:57:36;;;;;;;13.75;6.47;;;;;;;;;;4994599;28;20157;-64
2021/12/09 14:00:26;;;;;;;10.60;4.75;;;;;;;;;;4993647;28;20022;-65
2021/12/09 14:03:01;;;;;;;12.50;6.55;;;;;;;;;;4981351;28;20056;-65
2021/12/09 14:05:38;;;;;;;12.73;6.13;;;;;;;;;;4994088;28;20054;-65
2021/12/09 14:08:08;;;;;;;10.93;6.00;;;;;;;;;;4994444;28;20033;-65
2021/12/09 14:10:37;;;;;;;16.58;8.02;;;;;;;;;;4996617;28;20030;-64
2021/12/09 14:13:09;;;;;;;9.73;5.53;;;;;;;;;;4996990;28;20026;-65
2021/12/09 14:15:56;;;;;;;11.65;5.63;;;;;;;;;;4997863;28;20023;-66
2021/12/09 14:18:25;;;;;;;12.25;6.07;;;;;;;;;;4997567;28;20033;-64
2021/12/09 14:20:51;;;;;;;20.52;9.77;;;;;;;;;;4997074;28;20550;-66
2021/12/09 14:23:17;;;;;;;19.42;9.45;;;;;;;;;;4997208;28;20482;-65
2021/12/09 14:25:44;;;;;;;13.27;6.95;;;;;;;;;;4997428;28;20023;-65
2021/12/09 14:28:16;;;;;;;18.40;9.00;;;;;;;;;;4997002;28;20018;-65
2021/12/09 14:30:45;;;;;;;20.63;11.10;;;;;;;;;;4996498;28;20018;-64
2021/12/09 14:33:11;;;;;;;18.30;8.50;;;;;;;;;;4996723;28;20022;-64
2021/12/09 14:35:44;;;;;;;18.20;9.05;;;;;;;;;;4996512;28;20112;-65
2021/12/09 14:38:14;;;;;;;14.77;6.85;;;;;;;;;;4997220;28;20018;-65
2021/12/09 14:40:44;;;;;;;14.05;6.13;;;;;;;;;;4996336;28;20084;-65
2021/12/09 14:43:12;;;;;;;12.75;6.47;;;;;;;;;;4997571;28;20081;-64
2021/12/09 14:45:57;;;;;;;13.52;7.65;;;;;;;;;;4998030;28;20037;-64
2021/12/09 14:48:49;;;;;;;21.38;10.35;;;;;;;;;;4996391;28;20030;-63
2021/12/09 14:51:15;;;;;;;17.63;7.53;;;;;;;;;;4993529;28;20038;-64
2021/12/09 14:53:43;;;;;;;17.30;9.15;;;;;;;;;;4997030;28;20026;-64
2021/12/09 14:56:40;;;;;;;19.13;10.35;;;;;;;;;;4996432;28;20029;-63
2021/12/09 14:59:17;;;;;;;17.02;8.77;;;;;;;;;;4980454;28;20050;-64
2021/12/09 15:01:44;;;;;;;17.45;8.95;;;;;;;;;;4996195;28;20383;-65
2021/12/09 15:04:19;;;;;;;20.25;8.55;;;;;;;;;;4996636;28;20022;-65
2021/12/09 15:06:55;;;;;;;20.35;10.35;;;;;;;;;;4995191;28;20085;-64
2021/12/09 15:09:22;;;;;;;15.63;7.88;;;;;;;;;;4995455;28;20018;-64
2021/12/09 15:11:56;;;;;;;23.25;12.60;;;;;;;;;;4996795;28;20026;-65
2021/12/09 15:14:25;;;;;;;29.52;13.90;;;;;;;;;;4996630;28;20019;-66
2021/12/09 15:17:10;;;;;;;32.92;14.23;;;;;;;;;;4996522;28;20076;-64
2021/12/09 15:19:38;;;;;;;28.58;12.80;;;;;;;;;;4995079;28;20034;-65
2021/12/09 15:22:13;;;;;;;38.25;17.73;;;;;;;;;;4996634;28;20053;-65
2021/12/09 15:24:58;;;;;;;31.05;14.13;;;;;;;;;;4996441;28;20028;-64
2021/12/09 15:27:25;;;;;;;26.80;11.68;;;;;;;;;;4996758;28;20029;-65
2021/12/09 15:29:51;;;;;;;20.23;10.73;;;;;;;;;;4996527;28;20034;-64
2021/12/09 15:32:17;;;;;;;32.42;15.82;;;;;;;;;;4996803;28;20031;-64
2021/12/09 15:34:45;;;;;;;30.58;15.98;;;;;;;;;;4996639;28;20096;-63